sensor_id;sensor_type;location;lat;lon;timestamp;temperature;humidity
64561;DHT22;50960;46.838;16.838;2023-03-01T14:42:35;6.40;91.20
64561;DHT22;50960;46.838;16.838;2023-03-01T14:45:03;6.20;91.60
64561;DHT22;50960;46.838;16.838;2023-03-01T14:47:32;6.10;92.00
64561;DHT22;50960;46.838;16.838;2023-03-01T14:50:03;6.10;91.70
64561;DHT22;50960;46.838;16.838;2023-03-01T14:52:42;6.10;91.80
64561;DHT22;50960;46.838;16.838;2023-03-01T14:55:19;6.10;92.10
64561;DHT22;50960;46.838;16.838;2023-03-01T14:57:50;6.10;92.60
64561;DHT22;50960;46.838;16.838;2023-03-01T15:00:18;6.10;92.00
64561;DHT22;50960;46.838;16.838;2023-03-01T15:02:48;6.10;91.90
64561;DHT22;50960;46.838;16.838;2023-03-01T15:05:21;6.10;92.30
64561;DHT22;50960;46.838;16.838;2023-03-01T15:07:48;6.10;92.30
64561;DHT22;50960;46.838;16.838;2023-03-01T15:10:24;6.20;92.40
64561;DHT22;50960;46.838;16.838;2023-03-01T15:12:50;6.20;92.50
64561;DHT22;50960;46.838;16.838;2023-03-01T15:17:56;6.10;91.80
64561;DHT22;50960;46.838;16.838;2023-03-01T15:20:26;6.10;91.80
64561;DHT22;50960;46.838;16.838;2023-03-01T15:22:57;6.10;91.60
64561;DHT22;50960;46.838;16.838;2023-03-01T15:25:27;6.00;91.50
64561;DHT22;50960;46.838;16.838;2023-03-01T15:27:57;6.00;91.80
64561;DHT22;50960;46.838;16.838;2023-03-01T15:30:31;6.00;92.00
64561;DHT22;50960;46.838;16.838;2023-03-01T15:35:49;6.00;92.30
64561;DHT22;50960;46.838;16.838;2023-03-01T15:38:32;6.00;92.50
64561;DHT22;50960;46.838;16.838;2023-03-01T15:41:05;6.00;92.10
64561;DHT22;50960;46.838;16.838;2023-03-01T15:43:44;6.00;92.20
64561;DHT22;50960;46.838;16.838;2023-03-01T15:48:54;5.90;92.10
64561;DHT22;50960;46.838;16.838;2023-03-01T15:51:28;5.90;92.20
64561;DHT22;50960;46.838;16.838;2023-03-01T15:54:00;6.00;92.10
64561;DHT22;50960;46.838;16.838;2023-03-01T15:56:29;5.90;92.10
64561;DHT22;50960;46.838;16.838;2023-03-01T15:59:00;5.90;92.60
64561;DHT22;50960;46.838;16.838;2023-03-01T16:01:27;5.90;92.40
64561;DHT22;50960;46.838;16.838;2023-03-01T16:03:53;5.80;92.80
64561;DHT22;50960;46.838;16.838;2023-03-01T16:06:20;5.90;93.10
64561;DHT22;50960;46.838;16.838;2023-03-01T16:08:46;5.80;93.00
64561;DHT22;50960;46.838;16.838;2023-03-01T16:11:17;5.80;93.00
64561;DHT22;50960;46.838;16.838;2023-03-01T16:13:45;5.80;93.00
64561;DHT22;50960;46.838;16.838;2023-03-01T16:16:12;5.80;92.80
64561;DHT22;50960;46.838;16.838;2023-03-01T16:18:43;5.80;92.70
64561;DHT22;50960;46.838;16.838;2023-03-01T16:21:20;5.80;92.70
64561;DHT22;50960;46.838;16.838;2023-03-01T16:23:47;5.80;92.70
64561;DHT22;50960;46.838;16.838;2023-03-01T16:26:13;5.80;92.70
64561;DHT22;50960;46.838;16.838;2023-03-01T16:28:41;5.70;93.10
64561;DHT22;50960;46.838;16.838;2023-03-01T16:31:09;5.80;92.60
64561;DHT22;50960;46.838;16.838;2023-03-01T16:33:36;5.80;92.30
64561;DHT22;50960;46.838;16.838;2023-03-01T16:36:10;5.70;92.40
64561;DHT22;50960;46.838;16.838;2023-03-01T16:38:37;5.70;92.60
64561;DHT22;50960;46.838;16.838;2023-03-01T16:41:05;5.70;92.50
64561;DHT22;50960;46.838;16.838;2023-03-01T16:43:31;5.70;92.60
64561;DHT22;50960;46.838;16.838;2023-03-01T16:45:58;5.70;92.60
64561;DHT22;50960;46.838;16.838;2023-03-01T16:48:25;5.70;92.40
64561;DHT22;50960;46.838;16.838;2023-03-01T16:50:59;5.70;92.80
64561;DHT22;50960;46.838;16.838;2023-03-01T16:53:26;5.70;92.80
64561;DHT22;50960;46.838;16.838;2023-03-01T16:55:57;5.70;93.00
64561;DHT22;50960;46.838;16.838;2023-03-01T16:58:23;5.70;92.90
64561;DHT22;50960;46.838;16.838;2023-03-01T17:00:51;5.70;92.90
64561;DHT22;50960;46.838;16.838;2023-03-01T17:03:20;5.70;92.90
64561;DHT22;50960;46.838;16.838;2023-03-01T17:05:47;5.70;92.90
64561;DHT22;50960;46.838;16.838;2023-03-01T17:08:14;5.70;93.00
64561;DHT22;50960;46.838;16.838;2023-03-01T17:10:40;5.60;92.90
64561;DHT22;50960;46.838;16.838;2023-03-01T17:13:11;5.70;92.90
64561;DHT22;50960;46.838;16.838;2023-03-01T17:15:39;5.70;93.10
64561;DHT22;50960;46.838;16.838;2023-03-01T17:18:07;5.70;92.90
64561;DHT22;50960;46.838;16.838;2023-03-01T17:20:34;5.70;92.60
64561;DHT22;50960;46.838;16.838;2023-03-01T17:23:01;5.70;92.70
64561;DHT22;50960;46.838;16.838;2023-03-01T17:25:28;5.70;92.70
64561;DHT22;50960;46.838;16.838;2023-03-01T17:27:55;5.70;92.60
64561;DHT22;50960;46.838;16.838;2023-03-01T17:30:21;5.70;92.70
64561;DHT22;50960;46.838;16.838;2023-03-01T17:32:47;5.70;92.60
64561;DHT22;50960;46.838;16.838;2023-03-01T17:35:14;5.70;92.80
64561;DHT22;50960;46.838;16.838;2023-03-01T17:37:40;5.70;92.70
64561;DHT22;50960;46.838;16.838;2023-03-01T17:40:11;5.70;92.90
64561;DHT22;50960;46.838;16.838;2023-03-01T17:42:38;5.70;92.90
64561;DHT22;50960;46.838;16.838;2023-03-01T17:45:05;5.70;92.50
64561;DHT22;50960;46.838;16.838;2023-03-01T17:47:32;5.70;92.90
64561;DHT22;50960;46.838;16.838;2023-03-01T17:49:58;5.70;93.10
64561;DHT22;50960;46.838;16.838;2023-03-01T17:52:25;5.70;93.10
64561;DHT22;50960;46.838;16.838;2023-03-01T17:54:51;5.80;92.80
64561;DHT22;50960;46.838;16.838;2023-03-01T17:57:18;5.70;92.90
64561;DHT22;50960;46.838;16.838;2023-03-01T17:59:44;5.80;92.80
64561;DHT22;50960;46.838;16.838;2023-03-01T18:02:13;5.70;92.70
64561;DHT22;50960;46.838;16.838;2023-03-01T18:04:40;5.70;92.80
64561;DHT22;50960;46.838;16.838;2023-03-01T18:07:06;5.80;92.70
64561;DHT22;50960;46.838;16.838;2023-03-01T18:09:32;5.80;92.70
64561;DHT22;50960;46.838;16.838;2023-03-01T18:11:59;5.80;92.60
64561;DHT22;50960;46.838;16.838;2023-03-01T18:14:25;5.80;92.60
64561;DHT22;50960;46.838;16.838;2023-03-01T18:16:54;5.80;92.50
64561;DHT22;50960;46.838;16.838;2023-03-01T18:19:21;5.80;92.40
64561;DHT22;50960;46.838;16.838;2023-03-01T18:21:47;5.80;92.50
64561;DHT22;50960;46.838;16.838;2023-03-01T18:24:13;5.70;92.60
64561;DHT22;50960;46.838;16.838;2023-03-01T18:26:43;5.70;92.60
64561;DHT22;50960;46.838;16.838;2023-03-01T18:29:09;5.80;92.40
64561;DHT22;50960;46.838;16.838;2023-03-01T18:31:36;5.90;92.30
64561;DHT22;50960;46.838;16.838;2023-03-01T18:34:02;5.80;92.20
64561;DHT22;50960;46.838;16.838;2023-03-01T18:36:34;5.90;92.20
64561;DHT22;50960;46.838;16.838;2023-03-01T18:39:05;5.80;92.10
64561;DHT22;50960;46.838;16.838;2023-03-01T18:41:32;5.90;91.90
64561;DHT22;50960;46.838;16.838;2023-03-01T18:44:00;5.80;92.00
64561;DHT22;50960;46.838;16.838;2023-03-01T18:46:27;5.80;92.00
64561;DHT22;50960;46.838;16.838;2023-03-01T18:48:53;5.80;92.10
64561;DHT22;50960;46.838;16.838;2023-03-01T18:51:22;5.80;92.00
64561;DHT22;50960;46.838;16.838;2023-03-01T18:53:49;5.80;91.90
64561;DHT22;50960;46.838;16.838;2023-03-01T18:56:15;5.90;91.90
64561;DHT22;50960;46.838;16.838;2023-03-01T18:58:42;5.90;92.00
64561;DHT22;50960;46.838;16.838;2023-03-01T19:01:28;5.90;92.00
64561;DHT22;50960;46.838;16.838;2023-03-01T19:03:57;5.90;91.70
64561;DHT22;50960;46.838;16.838;2023-03-01T19:06:27;5.90;92.00
64561;DHT22;50960;46.838;16.838;2023-03-01T19:08:53;5.90;91.80
64561;DHT22;50960;46.838;16.838;2023-03-01T19:11:21;5.90;91.60
64561;DHT22;50960;46.838;16.838;2023-03-01T19:13:48;5.90;91.60
64561;DHT22;50960;46.838;16.838;2023-03-01T19:16:19;5.90;91.60
64561;DHT22;50960;46.838;16.838;2023-03-01T19:18:46;5.90;91.50
64561;DHT22;50960;46.838;16.838;2023-03-01T19:21:18;6.00;91.40
64561;DHT22;50960;46.838;16.838;2023-03-01T19:23:46;6.00;91.30
64561;DHT22;50960;46.838;16.838;2023-03-01T19:26:15;6.10;91.10
64561;DHT22;50960;46.838;16.838;2023-03-01T19:28:42;6.10;91.00
64561;DHT22;50960;46.838;16.838;2023-03-01T19:31:18;6.10;90.80
64561;DHT22;50960;46.838;16.838;2023-03-01T19:33:46;6.10;90.60
64561;DHT22;50960;46.838;16.838;2023-03-01T19:36:13;6.10;90.70
64561;DHT22;50960;46.838;16.838;2023-03-01T19:38:41;6.10;90.80
64561;DHT22;50960;46.838;16.838;2023-03-01T19:41:13;6.00;90.40
64561;DHT22;50960;46.838;16.838;2023-03-01T19:43:44;6.10;90.50
64561;DHT22;50960;46.838;16.838;2023-03-01T19:46:11;6.10;90.50
64561;DHT22;50960;46.838;16.838;2023-03-01T19:48:38;6.10;90.50
64561;DHT22;50960;46.838;16.838;2023-03-01T19:51:05;6.10;90.30
64561;DHT22;50960;46.838;16.838;2023-03-01T19:53:33;6.10;90.30
64561;DHT22;50960;46.838;16.838;2023-03-01T19:56:00;6.00;90.40
64561;DHT22;50960;46.838;16.838;2023-03-01T19:58:29;6.10;90.20
64561;DHT22;50960;46.838;16.838;2023-03-01T20:00:56;6.10;90.20
64561;DHT22;50960;46.838;16.838;2023-03-01T20:03:33;6.10;90.40
64561;DHT22;50960;46.838;16.838;2023-03-01T20:06:08;6.10;89.80
64561;DHT22;50960;46.838;16.838;2023-03-01T20:08:34;6.10;89.60
64561;DHT22;50960;46.838;16.838;2023-03-01T20:11:02;6.10;89.80
64561;DHT22;50960;46.838;16.838;2023-03-01T20:13:29;6.00;89.80
64561;DHT22;50960;46.838;16.838;2023-03-01T20:15:55;6.00;90.00
64561;DHT22;50960;46.838;16.838;2023-03-01T20:18:22;6.10;90.10
64561;DHT22;50960;46.838;16.838;2023-03-01T20:20:48;6.10;90.00
64561;DHT22;50960;46.838;16.838;2023-03-01T20:23:16;6.10;89.80
64561;DHT22;50960;46.838;16.838;2023-03-01T20:25:43;6.10;90.00
64561;DHT22;50960;46.838;16.838;2023-03-01T20:28:09;6.10;89.30
64561;DHT22;50960;46.838;16.838;2023-03-01T20:30:40;6.10;89.00
64561;DHT22;50960;46.838;16.838;2023-03-01T20:33:07;6.10;88.90
64561;DHT22;50960;46.838;16.838;2023-03-01T20:35:33;6.10;89.30
64561;DHT22;50960;46.838;16.838;2023-03-01T20:38:02;6.20;89.30
64561;DHT22;50960;46.838;16.838;2023-03-01T20:40:28;6.20;88.40
64561;DHT22;50960;46.838;16.838;2023-03-01T20:42:57;6.20;88.20
64561;DHT22;50960;46.838;16.838;2023-03-01T20:45:24;6.10;88.30
64561;DHT22;50960;46.838;16.838;2023-03-01T20:47:50;6.20;88.50
64561;DHT22;50960;46.838;16.838;2023-03-01T20:50:18;6.10;88.10
64561;DHT22;50960;46.838;16.838;2023-03-01T20:52:45;6.20;88.50
64561;DHT22;50960;46.838;16.838;2023-03-01T20:55:13;6.20;88.60
64561;DHT22;50960;46.838;16.838;2023-03-01T20:57:39;6.20;88.60
64561;DHT22;50960;46.838;16.838;2023-03-01T21:00:07;6.20;88.70
64561;DHT22;50960;46.838;16.838;2023-03-01T21:02:33;6.10;88.30
64561;DHT22;50960;46.838;16.838;2023-03-01T21:05:00;6.10;89.10
64561;DHT22;50960;46.838;16.838;2023-03-01T21:07:26;6.10;89.40
64561;DHT22;50960;46.838;16.838;2023-03-01T21:09:52;6.10;89.80
64561;DHT22;50960;46.838;16.838;2023-03-01T21:12:19;6.00;89.80
64561;DHT22;50960;46.838;16.838;2023-03-01T21:14:45;6.10;90.00
64561;DHT22;50960;46.838;16.838;2023-03-01T21:17:15;6.00;90.00
64561;DHT22;50960;46.838;16.838;2023-03-01T21:19:42;6.00;89.90
64561;DHT22;50960;46.838;16.838;2023-03-01T21:22:13;6.00;90.20
64561;DHT22;50960;46.838;16.838;2023-03-01T21:24:40;6.00;90.00
64561;DHT22;50960;46.838;16.838;2023-03-01T21:27:07;5.90;90.20
64561;DHT22;50960;46.838;16.838;2023-03-01T21:29:43;5.90;90.40
64561;DHT22;50960;46.838;16.838;2023-03-01T21:32:10;5.90;90.50
64561;DHT22;50960;46.838;16.838;2023-03-01T21:34:37;5.90;90.40
64561;DHT22;50960;46.838;16.838;2023-03-01T21:37:04;5.90;90.40
64561;DHT22;50960;46.838;16.838;2023-03-01T21:39:31;5.80;90.40
64561;DHT22;50960;46.838;16.838;2023-03-01T21:42:00;5.80;90.30
64561;DHT22;50960;46.838;16.838;2023-03-01T21:44:27;5.80;90.30
64561;DHT22;50960;46.838;16.838;2023-03-01T21:46:56;5.80;90.10
64561;DHT22;50960;46.838;16.838;2023-03-01T21:49:26;5.90;90.20
64561;DHT22;50960;46.838;16.838;2023-03-01T21:51:52;5.80;90.10
64561;DHT22;50960;46.838;16.838;2023-03-01T21:54:19;5.80;90.10
64561;DHT22;50960;46.838;16.838;2023-03-01T21:56:47;5.80;90.20
64561;DHT22;50960;46.838;16.838;2023-03-01T21:59:16;5.70;90.00
64561;DHT22;50960;46.838;16.838;2023-03-01T22:01:43;5.70;90.10
64561;DHT22;50960;46.838;16.838;2023-03-01T22:04:09;5.70;90.30
64561;DHT22;50960;46.838;16.838;2023-03-01T22:06:40;5.70;89.70
